TimeCDT,TemperatureF,Dew PointF,Humidity,Sea Level PressureIn,VisibilityMPH,Wind Direction,Wind SpeedMPH,Gust SpeedMPH,PrecipitationIn,Events,Conditions,WindDirDegrees,DateUTC
12:51 AM,79.0,72.0,79,30.03,8.0,ENE,3.5,-,N/A,,Mostly Cloudy,60,2013-08-23 05:51:00
1:51 AM,78.1,72.0,81,30.02,8.0,Calm,Calm,-,N/A,,Mostly Cloudy,0,2013-08-23 06:51:00
2:51 AM,78.1,71.1,79,30.02,8.0,Calm,Calm,-,N/A,,Mostly Cloudy,0,2013-08-23 07:51:00
3:51 AM,77.0,71.1,82,30.04,8.0,NE,10.4,-,N/A,,Mostly Cloudy,40,2013-08-23 08:51:00
4:51 AM,75.0,69.1,82,30.05,9.0,ENE,11.5,-,N/A,,Overcast,60,2013-08-23 09:51:00
5:51 AM,73.9,68.0,82,30.06,10.0,East,5.8,-,N/A,,Overcast,90,2013-08-23 10:51:00
6:51 AM,73.9,68.0,82,30.07,10.0,East,4.6,-,N/A,,Mostly Cloudy,100,2013-08-23 11:51:00
7:51 AM,75.9,69.1,79,30.08,9.0,Calm,Calm,-,N/A,,Mostly Cloudy,0,2013-08-23 12:51:00
8:51 AM,79.0,69.1,72,30.08,9.0,Calm,Calm,-,N/A,,Partly Cloudy,0,2013-08-23 13:51:00
9:51 AM,82.0,69.1,65,30.08,9.0,Calm,Calm,-,N/A,,Partly Cloudy,0,2013-08-23 14:51:00
10:51 AM,84.0,69.1,61,30.09,10.0,Calm,Calm,-,N/A,,Partly Cloudy,0,2013-08-23 15:51:00
11:51 AM,86.0,69.1,57,30.07,10.0,East,9.2,-,N/A,,Partly Cloudy,90,2013-08-23 16:51:00
12:51 PM,87.1,69.1,55,30.07,10.0,Variable,3.5,-,N/A,,Partly Cloudy,0,2013-08-23 17:51:00
1:51 PM,87.1,69.1,55,30.06,10.0,NE,9.2,-,N/A,,Mostly Cloudy,50,2013-08-23 18:51:00
2:51 PM,89.1,66.9,48,30.04,10.0,ENE,8.1,-,N/A,,Scattered Clouds,60,2013-08-23 19:51:00
3:51 PM,90.0,66.0,45,30.03,10.0,ENE,9.2,-,N/A,,Partly Cloudy,70,2013-08-23 20:51:00
4:51 PM,90.0,64.0,42,30.02,10.0,ENE,10.4,-,N/A,,Partly Cloudy,60,2013-08-23 21:51:00
5:51 PM,88.0,66.0,48,30.02,10.0,ESE,11.5,-,N/A,,Scattered Clouds,110,2013-08-23 22:51:00
6:51 PM,86.0,64.9,49,30.03,10.0,East,10.4,-,N/A,,Scattered Clouds,90,2013-08-23 23:51:00
7:51 PM,82.0,66.0,58,30.05,10.0,East,8.1,-,N/A,,Scattered Clouds,80,2013-08-24 00:51:00
8:51 PM,81.0,66.0,60,30.06,10.0,East,8.1,-,N/A,,Partly Cloudy,80,2013-08-24 01:51:00
9:51 PM,78.1,66.0,66,30.07,10.0,East,5.8,-,N/A,,Partly Cloudy,80,2013-08-24 02:51:00
10:51 PM,77.0,66.9,71,30.08,10.0,East,4.6,-,N/A,,Partly Cloudy,100,2013-08-24 03:51:00
11:51 PM,77.0,66.9,71,30.08,10.0,ESE,5.8,-,N/A,,Partly Cloudy,120,2013-08-24 04:51:00